createdAt,value
2017-12-22T00:00:02.815Z,14.77
2017-12-22T00:02:30.340Z,14.50
2017-12-22T00:04:57.862Z,16.17
2017-12-22T00:07:25.371Z,16.40
2017-12-22T00:09:52.864Z,15.45
2017-12-22T00:12:20.398Z,16.62
2017-12-22T00:14:47.900Z,15.63
2017-12-22T00:17:15.426Z,16.90
2017-12-22T00:19:42.940Z,14.30
2017-12-22T00:22:10.455Z,14.30
2017-12-22T00:24:37.995Z,14.57
2017-12-22T00:27:05.512Z,13.20
2017-12-22T00:29:33.779Z,15.00
2017-12-22T00:32:02.063Z,13.43
2017-12-22T00:34:30.824Z,14.25
2017-12-22T00:36:59.022Z,13.82
2017-12-22T00:39:27.297Z,13.35
2017-12-22T00:41:55.579Z,13.40
2017-12-22T00:44:23.891Z,14.40
2017-12-22T00:46:51.381Z,15.00
2017-12-22T00:49:18.882Z,15.50
2017-12-22T00:51:46.475Z,15.13
2017-12-22T00:54:13.979Z,13.65
2017-12-22T00:56:41.483Z,14.25
2017-12-22T00:59:09.236Z,15.33
2017-12-22T01:01:36.728Z,15.82
2017-12-22T01:04:04.267Z,12.18
2017-12-22T01:06:31.794Z,14.15
2017-12-22T01:09:00.064Z,13.68
2017-12-22T01:11:28.408Z,12.95
2017-12-22T01:13:55.937Z,12.82
2017-12-22T01:16:29.179Z,13.80
2017-12-22T01:19:02.557Z,12.68
2017-12-22T01:21:30.078Z,12.37
2017-12-22T01:23:57.590Z,10.70
2017-12-22T01:26:25.913Z,9.90
2017-12-22T01:28:53.442Z,13.48
2017-12-22T01:31:20.947Z,12.77
2017-12-22T01:33:48.494Z,13.10
2017-12-22T01:36:16.010Z,13.73
2017-12-22T01:38:43.510Z,11.93
2017-12-22T01:41:11.031Z,13.75
2017-12-22T01:43:38.554Z,13.80
2017-12-22T01:46:06.059Z,14.57
2017-12-22T01:48:34.325Z,12.35
2017-12-22T01:51:01.889Z,12.25
2017-12-22T01:53:29.397Z,12.07
2017-12-22T01:55:56.915Z,12.63
2017-12-22T01:58:25.215Z,13.00
2017-12-22T02:00:52.806Z,13.10
2017-12-22T02:03:20.306Z,12.90
2017-12-22T02:05:47.823Z,12.80
2017-12-22T02:08:15.339Z,13.57
2017-12-22T02:10:42.859Z,15.05
2017-12-22T02:13:10.360Z,15.82
2017-12-22T02:15:38.623Z,13.47
2017-12-22T02:18:06.941Z,15.60
2017-12-22T02:20:34.443Z,15.20
2017-12-22T02:23:01.945Z,14.85
2017-12-22T02:25:29.474Z,14.65
2017-12-22T02:27:57.137Z,14.15
2017-12-22T02:30:25.429Z,14.13
2017-12-22T02:32:53.690Z,13.55
2017-12-22T02:35:29.462Z,13.55
2017-12-22T02:37:57.154Z,13.30
2017-12-22T02:40:24.701Z,12.52
2017-12-22T02:42:52.215Z,12.87
2017-12-22T02:45:19.707Z,13.15
2017-12-22T02:47:47.217Z,14.13
2017-12-22T02:50:14.750Z,12.63
2017-12-22T02:52:42.266Z,13.00
2017-12-22T02:55:10.556Z,13.27
2017-12-22T02:57:38.072Z,13.75
2017-12-22T03:00:05.611Z,11.52
2017-12-22T03:02:33.117Z,12.68
2017-12-22T03:05:00.625Z,12.73
2017-12-22T03:07:28.144Z,15.20
2017-12-22T03:09:56.420Z,15.32
2017-12-22T03:12:24.702Z,11.65
2017-12-22T03:14:52.974Z,14.48
2017-12-22T03:17:21.250Z,14.43
2017-12-22T03:19:49.600Z,12.75
2017-12-22T03:22:17.119Z,14.18
2017-12-22T03:24:44.720Z,14.82
2017-12-22T03:27:12.242Z,14.87
2017-12-22T03:29:39.741Z,14.07
2017-12-22T03:32:07.238Z,15.65
2017-12-22T03:34:35.513Z,13.23
2017-12-22T03:37:03.799Z,13.50
2017-12-22T03:39:32.065Z,14.17
2017-12-22T03:42:00.350Z,12.90
2017-12-22T03:44:27.848Z,15.05
2017-12-22T03:46:55.392Z,13.75
2017-12-22T03:49:22.907Z,15.30
2017-12-22T03:51:51.192Z,14.07
2017-12-22T03:54:19.482Z,13.98
2017-12-22T03:56:47.750Z,14.10
2017-12-22T03:59:16.019Z,14.75
2017-12-22T04:01:44.300Z,16.12
2017-12-22T04:04:12.569Z,16.50
2017-12-22T04:06:40.078Z,15.40
2017-12-22T04:09:07.614Z,17.23
2017-12-22T04:11:35.143Z,17.75
2017-12-22T04:14:03.471Z,14.70
2017-12-22T04:16:30.998Z,16.05
2017-12-22T04:18:58.494Z,15.30
2017-12-22T04:21:26.006Z,15.68
2017-12-22T04:23:54.291Z,14.85
2017-12-22T04:26:22.556Z,15.27
2017-12-22T04:28:50.836Z,16.23
2017-12-22T04:31:19.122Z,16.08
2017-12-22T04:33:47.379Z,15.20
2017-12-22T04:36:15.000Z,14.27
2017-12-22T04:38:42.503Z,16.83
2017-12-22T04:41:10.024Z,17.65
2017-12-22T04:43:37.591Z,14.65
2017-12-22T04:46:05.856Z,15.70
2017-12-22T04:48:33.372Z,16.42
2017-12-22T04:51:01.636Z,15.60
2017-12-22T04:53:29.174Z,15.65
2017-12-22T04:55:56.666Z,16.15
2017-12-22T04:58:24.179Z,17.70
2017-12-22T05:00:51.678Z,15.97
2017-12-22T05:03:19.947Z,14.45
2017-12-22T05:05:47.456Z,15.60
2017-12-22T05:08:15.023Z,14.45
2017-12-22T05:10:42.534Z,14.25
2017-12-22T05:13:10.830Z,15.55
2017-12-22T05:15:38.342Z,15.25
2017-12-22T05:18:05.843Z,13.77
2017-12-22T05:20:33.351Z,13.18
2017-12-22T05:23:00.867Z,12.43
2017-12-22T05:25:28.386Z,14.38
2017-12-22T05:27:55.900Z,14.80
2017-12-22T05:30:23.402Z,13.70
2017-12-22T05:32:50.897Z,12.25
2017-12-22T05:35:18.410Z,13.20
2017-12-22T05:37:45.927Z,13.27
2017-12-22T05:40:13.440Z,13.75
2017-12-22T05:42:40.937Z,13.13
2017-12-22T05:45:09.218Z,13.73
2017-12-22T05:47:36.789Z,13.75
2017-12-22T05:50:04.292Z,14.15
2017-12-22T05:52:31.804Z,14.27
2017-12-22T05:54:59.341Z,13.07
2017-12-22T05:57:26.860Z,12.93
2017-12-22T05:59:54.378Z,13.43
2017-12-22T06:02:21.917Z,15.13
2017-12-22T06:04:49.431Z,12.80
2017-12-22T06:07:16.932Z,13.05
2017-12-22T06:09:45.223Z,13.30
2017-12-22T06:12:13.491Z,12.45
2017-12-22T06:14:41.782Z,12.57
2017-12-22T06:17:09.297Z,12.05
2017-12-22T06:19:36.821Z,11.23
2017-12-22T06:22:04.332Z,11.12
2017-12-22T06:24:31.865Z,10.95
2017-12-22T06:26:59.370Z,11.30
2017-12-22T06:29:27.660Z,10.25
2017-12-22T06:31:55.268Z,9.95
2017-12-22T06:34:22.753Z,9.80
2017-12-22T06:36:51.029Z,10.88
2017-12-22T06:39:18.548Z,10.32
2017-12-22T06:41:46.149Z,9.82
2017-12-22T06:44:13.668Z,10.10
2017-12-22T06:46:41.188Z,10.60
2017-12-22T06:49:09.459Z,10.30
2017-12-22T06:51:36.988Z,11.68
2017-12-22T06:54:04.511Z,12.00
2017-12-22T06:56:32.027Z,12.75
2017-12-22T06:59:00.326Z,12.70
2017-12-22T07:01:27.841Z,12.20
2017-12-22T07:03:55.364Z,13.07
2017-12-22T07:06:23.290Z,10.30
2017-12-22T07:08:51.660Z,13.85
2017-12-22T07:11:19.184Z,13.32
2017-12-22T07:13:46.687Z,13.23
2017-12-22T07:16:14.963Z,10.57
2017-12-22T07:18:43.264Z,12.10
2017-12-22T07:21:10.773Z,10.10
2017-12-22T07:23:38.294Z,10.68
2017-12-22T07:26:05.792Z,11.25
2017-12-22T07:28:33.324Z,11.30
2017-12-22T07:31:00.830Z,11.55
2017-12-22T07:33:28.364Z,11.10
2017-12-22T07:35:55.868Z,11.30
2017-12-22T07:38:23.402Z,10.80
2017-12-22T07:40:50.911Z,10.80
2017-12-22T07:43:18.443Z,12.93
2017-12-22T07:45:46.722Z,10.93
2017-12-22T07:48:15.008Z,10.60
2017-12-22T07:50:42.545Z,10.50
2017-12-22T07:53:10.076Z,10.40
2017-12-22T07:55:37.611Z,10.95
2017-12-22T07:58:05.148Z,11.10
2017-12-22T08:00:32.667Z,11.23
2017-12-22T08:03:00.167Z,10.73
2017-12-22T08:05:27.676Z,11.38
2017-12-22T08:07:55.254Z,10.68
2017-12-22T08:10:22.764Z,9.25
2017-12-22T08:12:50.262Z,9.20
2017-12-22T08:15:17.776Z,10.17
2017-12-22T08:17:45.276Z,8.82
2017-12-22T08:20:12.783Z,10.40
2017-12-22T08:22:40.280Z,8.82
2017-12-22T08:25:07.796Z,10.95
2017-12-22T08:27:35.341Z,10.27
2017-12-22T08:30:03.617Z,10.55
2017-12-22T08:32:32.227Z,11.05
2017-12-22T08:34:59.764Z,9.95
2017-12-22T08:37:28.091Z,9.77
2017-12-22T08:39:55.595Z,10.20
2017-12-22T08:42:23.088Z,10.25
2017-12-22T08:44:50.615Z,10.73
2017-12-22T08:47:18.902Z,11.20
2017-12-22T08:49:47.169Z,9.55
2017-12-22T08:52:15.437Z,9.38
2017-12-22T08:54:42.944Z,9.93
2017-12-22T08:57:10.491Z,8.70
2017-12-22T08:59:38.015Z,10.48
2017-12-22T09:02:05.519Z,10.50
2017-12-22T09:04:33.020Z,9.65
2017-12-22T09:07:00.534Z,11.63
2017-12-22T09:09:28.043Z,10.95
2017-12-22T09:11:55.557Z,10.93
2017-12-22T09:14:23.317Z,10.87
2017-12-22T09:16:50.852Z,11.80
2017-12-22T09:19:19.143Z,11.63
2017-12-22T09:21:46.675Z,9.82
2017-12-22T09:24:14.169Z,10.20
2017-12-22T09:26:41.669Z,9.88
2017-12-22T09:29:09.964Z,11.23
2017-12-22T09:31:38.259Z,10.90
2017-12-22T09:34:06.571Z,11.25
2017-12-22T09:36:34.144Z,10.20
2017-12-22T09:39:01.662Z,9.75
2017-12-22T09:41:29.926Z,10.02
2017-12-22T09:43:58.246Z,9.55
2017-12-22T09:46:25.780Z,7.70
2017-12-22T09:48:53.286Z,9.95
2017-12-22T09:51:20.798Z,10.00
2017-12-22T09:53:49.244Z,9.25
2017-12-22T09:56:17.564Z,9.27
2017-12-22T09:58:45.112Z,9.55
2017-12-22T10:01:13.384Z,9.88
2017-12-22T10:03:40.916Z,10.07
2017-12-22T10:06:08.438Z,9.75
2017-12-22T10:08:35.950Z,10.95
2017-12-22T10:11:03.475Z,10.00
2017-12-22T10:13:30.993Z,10.02
2017-12-22T10:15:58.492Z,10.50
2017-12-22T10:18:26.045Z,9.48
2017-12-22T10:20:53.560Z,8.05
2017-12-22T10:23:21.822Z,9.57
2017-12-22T10:25:50.121Z,8.77
2017-12-22T10:28:18.411Z,9.18
2017-12-22T10:30:45.961Z,10.07
2017-12-22T10:33:13.480Z,11.10
2017-12-22T10:35:41.108Z,10.75
2017-12-22T10:38:08.760Z,9.18
2017-12-22T10:40:36.393Z,9.90
2017-12-22T10:43:03.951Z,9.10
2017-12-22T10:45:32.250Z,8.37
2017-12-22T10:47:59.760Z,7.12
2017-12-22T10:50:27.314Z,8.40
2017-12-22T10:52:54.822Z,10.23
2017-12-22T10:55:22.367Z,10.65
2017-12-22T10:57:49.867Z,10.13
2017-12-22T11:00:17.395Z,10.90
2017-12-22T11:02:45.714Z,11.10
2017-12-22T11:05:13.214Z,11.73
2017-12-22T11:07:40.756Z,10.18
2017-12-22T11:10:08.269Z,10.40
2017-12-22T11:12:35.776Z,10.32
2017-12-22T11:15:03.308Z,10.20
2017-12-22T11:17:30.848Z,9.60
2017-12-22T11:19:58.367Z,10.88
2017-12-22T11:22:25.880Z,10.90
2017-12-22T11:24:53.373Z,9.30
2017-12-22T11:27:21.662Z,8.05
2017-12-22T11:29:49.952Z,8.60
2017-12-22T11:32:18.251Z,8.20
2017-12-22T11:34:45.771Z,11.90
2017-12-22T11:37:13.305Z,9.27
2017-12-22T11:39:40.794Z,9.32
2017-12-22T11:42:08.305Z,7.62
2017-12-22T11:44:35.796Z,9.15
2017-12-22T11:47:03.314Z,8.55
2017-12-22T11:49:30.836Z,9.00
2017-12-22T11:51:59.133Z,8.35
2017-12-22T11:54:26.648Z,8.45
2017-12-22T11:56:54.156Z,8.60
2017-12-22T11:59:21.706Z,8.70
2017-12-22T12:01:49.977Z,9.48
2017-12-22T12:04:18.249Z,8.70
2017-12-22T12:06:46.531Z,8.18
2017-12-22T12:09:14.809Z,8.70
2017-12-22T12:11:43.094Z,7.57
2017-12-22T12:14:11.387Z,9.13
2017-12-22T12:16:38.944Z,7.75
2017-12-22T12:19:06.456Z,9.90
2017-12-22T12:21:33.962Z,9.55
2017-12-22T12:24:01.506Z,8.00
2017-12-22T12:26:29.045Z,8.93
2017-12-22T12:28:56.610Z,9.50
2017-12-22T12:31:24.248Z,9.25
2017-12-22T12:33:51.768Z,7.40
2017-12-22T12:36:19.316Z,7.45
2017-12-22T12:38:46.841Z,7.90
2017-12-22T12:41:16.327Z,6.40
2017-12-22T12:43:43.876Z,6.40
2017-12-22T12:46:11.390Z,7.90
2017-12-22T12:48:38.927Z,7.47
2017-12-22T12:51:06.551Z,6.90
2017-12-22T12:53:34.088Z,7.60
2017-12-22T12:56:01.634Z,7.20
2017-12-22T12:58:29.151Z,5.85
2017-12-22T13:00:56.655Z,6.18
2017-12-22T13:03:24.181Z,6.10
2017-12-22T13:05:51.699Z,7.15
2017-12-22T13:08:19.438Z,7.20
2017-12-22T13:10:46.976Z,6.50
2017-12-22T13:13:14.478Z,7.22
2017-12-22T13:15:42.057Z,7.30
2017-12-22T13:18:09.572Z,6.43
2017-12-22T13:20:47.641Z,6.40
2017-12-22T13:23:15.144Z,6.00
2017-12-22T13:31:15.719Z,5.70
2017-12-22T13:33:43.220Z,5.50
2017-12-22T13:36:10.867Z,5.85
2017-12-22T13:38:38.385Z,5.47
2017-12-22T13:41:06.740Z,5.90
2017-12-22T13:43:34.247Z,6.17
2017-12-22T13:46:01.742Z,5.55
2017-12-22T13:48:29.254Z,4.95
2017-12-22T13:50:56.808Z,5.40
2017-12-22T13:53:24.305Z,5.05
2017-12-22T13:55:51.938Z,5.13
2017-12-22T13:58:19.439Z,4.97
2017-12-22T14:00:47.230Z,6.30
2017-12-22T14:03:14.751Z,3.97
2017-12-22T14:05:42.338Z,4.85
2017-12-22T14:08:10.060Z,4.90
2017-12-22T14:10:37.570Z,5.22
2017-12-22T14:13:05.895Z,6.80
2017-12-22T14:15:33.415Z,6.80
2017-12-22T14:18:00.924Z,5.37
2017-12-22T14:20:28.433Z,7.10
2017-12-22T14:22:56.713Z,6.75
2017-12-22T14:25:25.002Z,5.60
2017-12-22T14:27:52.515Z,5.18
2017-12-22T14:30:20.035Z,4.95
2017-12-22T14:32:47.562Z,5.00
2017-12-22T14:35:15.823Z,4.65
2017-12-22T14:37:43.339Z,5.10
2017-12-22T14:40:10.890Z,4.45
2017-12-22T14:42:38.429Z,4.87
2017-12-22T14:45:06.118Z,4.80
2017-12-22T14:47:33.627Z,5.40
2017-12-22T14:50:01.155Z,4.28
2017-12-22T14:52:28.797Z,4.15
2017-12-22T14:54:56.300Z,4.40
2017-12-22T14:57:23.802Z,4.62
2017-12-22T14:59:51.318Z,5.07
2017-12-22T15:02:18.813Z,5.65
2017-12-22T15:04:46.332Z,5.85
2017-12-22T15:07:13.842Z,6.00
2017-12-22T15:09:41.351Z,4.90
2017-12-22T15:12:08.863Z,5.80
2017-12-22T15:14:36.368Z,5.57
2017-12-22T15:17:03.870Z,5.20
2017-12-22T15:19:31.390Z,5.00
2017-12-22T15:21:58.893Z,4.80
2017-12-22T15:24:26.400Z,5.45
2017-12-22T15:26:53.969Z,5.97
2017-12-22T15:29:21.463Z,5.75
2017-12-22T15:31:49.022Z,7.90
2017-12-22T15:34:17.266Z,7.20
2017-12-22T15:36:44.808Z,54.35
2017-12-22T15:39:12.324Z,8.27
2017-12-22T15:41:39.823Z,9.30
2017-12-22T15:44:07.320Z,7.07
2017-12-22T15:46:34.841Z,6.60
2017-12-22T15:49:02.408Z,6.53
2017-12-22T15:51:29.929Z,5.93
2017-12-22T15:53:57.437Z,5.95
2017-12-22T15:56:24.945Z,6.37
2017-12-22T15:58:52.613Z,7.22
2017-12-22T16:01:20.099Z,5.95
2017-12-22T16:03:47.619Z,6.60
2017-12-22T16:06:15.250Z,6.72
2017-12-22T16:08:43.564Z,8.02
2017-12-22T16:11:11.081Z,7.97
2017-12-22T16:13:38.603Z,8.05
2017-12-22T16:16:06.134Z,7.07
2017-12-22T16:18:33.726Z,7.90
2017-12-22T16:21:01.258Z,8.13
2017-12-22T16:23:28.769Z,8.85
2017-12-22T16:25:56.400Z,9.10
2017-12-22T16:28:23.898Z,8.55
2017-12-22T16:30:51.427Z,7.18
2017-12-22T16:33:18.951Z,9.80
2017-12-22T16:35:46.441Z,7.32
2017-12-22T16:38:13.952Z,9.63
2017-12-22T16:40:41.647Z,9.33
2017-12-22T16:43:09.130Z,8.90
2017-12-22T16:45:36.662Z,9.15
2017-12-22T16:48:04.150Z,9.70
2017-12-22T16:50:31.686Z,9.60
2017-12-22T16:52:59.180Z,9.82
2017-12-22T16:55:26.667Z,7.83
2017-12-22T16:57:54.939Z,9.10
2017-12-22T17:00:23.311Z,10.30
2017-12-22T17:02:50.847Z,7.80
2017-12-22T17:05:18.399Z,8.50
2017-12-22T17:07:45.916Z,8.48
2017-12-22T17:10:13.420Z,9.50
2017-12-22T17:12:40.942Z,9.18
2017-12-22T17:15:08.451Z,9.65
2017-12-22T17:17:35.960Z,9.63
2017-12-22T17:20:03.467Z,9.50
2017-12-22T17:22:30.996Z,9.60
2017-12-22T17:24:58.551Z,9.27
2017-12-22T17:27:26.059Z,9.17
2017-12-22T17:29:53.577Z,10.90
2017-12-22T17:32:21.096Z,9.93
2017-12-22T17:34:48.646Z,11.00
2017-12-22T17:37:16.928Z,11.45
2017-12-22T17:39:45.191Z,10.50
2017-12-22T17:42:12.751Z,9.68
2017-12-22T17:44:40.371Z,12.60
2017-12-22T17:47:07.882Z,11.85
2017-12-22T17:49:35.429Z,10.35
2017-12-22T17:52:02.945Z,9.88
2017-12-22T17:54:30.456Z,9.27
2017-12-22T17:56:57.958Z,9.40
2017-12-22T17:59:25.513Z,10.30
2017-12-22T18:01:53.010Z,9.27
2017-12-22T18:04:20.655Z,7.20
2017-12-22T18:06:48.233Z,7.85
2017-12-22T18:09:15.686Z,7.72
2017-12-22T18:11:43.191Z,8.32
2017-12-22T18:14:11.493Z,9.88
2017-12-22T18:16:39.012Z,9.30
2017-12-22T18:19:06.546Z,9.20
2017-12-22T18:21:34.880Z,10.57
2017-12-22T18:24:02.635Z,8.30
2017-12-22T18:26:34.580Z,10.15
2017-12-22T18:29:02.860Z,9.35
2017-12-22T18:31:30.392Z,10.00
2017-12-22T18:33:57.948Z,9.00
2017-12-22T18:36:25.447Z,8.87
2017-12-22T18:38:52.981Z,9.75
2017-12-22T18:41:20.499Z,7.37
2017-12-22T18:43:48.030Z,7.43
2017-12-22T18:46:15.555Z,8.45
2017-12-22T18:48:43.076Z,7.65
2017-12-22T18:51:10.584Z,8.03
2017-12-22T18:53:38.086Z,7.18
2017-12-22T18:56:05.708Z,7.50
2017-12-22T18:58:33.345Z,7.90
2017-12-22T19:01:00.854Z,8.43
2017-12-22T19:03:30.300Z,7.47
2017-12-22T19:05:57.867Z,8.43
2017-12-22T19:08:25.423Z,6.35
2017-12-22T19:10:52.920Z,7.37
2017-12-22T19:13:20.445Z,6.70
2017-12-22T19:15:47.998Z,6.47
2017-12-22T19:18:15.507Z,6.72
2017-12-22T19:20:43.217Z,7.32
2017-12-22T19:23:11.490Z,7.73
2017-12-22T19:25:39.970Z,6.43
2017-12-22T19:28:07.506Z,7.20
2017-12-22T19:30:35.043Z,7.55
2017-12-22T19:33:02.588Z,7.90
2017-12-22T19:35:30.099Z,7.43
2017-12-22T19:37:57.653Z,8.10
2017-12-22T19:40:25.158Z,7.57
2017-12-22T19:42:52.664Z,7.90
2017-12-22T19:45:20.235Z,7.75
2017-12-22T19:47:47.761Z,9.38
2017-12-22T19:50:16.027Z,8.60
2017-12-22T19:52:43.536Z,9.23
2017-12-22T19:55:11.055Z,8.25
2017-12-22T19:57:38.572Z,8.60
2017-12-22T20:00:06.071Z,8.27
2017-12-22T20:02:34.345Z,9.25
2017-12-22T20:05:02.675Z,8.10
2017-12-22T20:07:30.185Z,7.70
2017-12-22T20:09:57.691Z,9.95
2017-12-22T20:12:25.223Z,8.57
2017-12-22T20:14:52.741Z,8.43
2017-12-22T20:17:20.244Z,8.20
2017-12-22T20:19:47.754Z,8.45
2017-12-22T20:22:15.900Z,9.02
2017-12-22T20:24:43.442Z,9.18
2017-12-22T20:27:11.056Z,7.93
2017-12-22T20:29:38.571Z,8.68
2017-12-22T20:32:06.103Z,8.73
2017-12-22T20:34:34.358Z,8.65
2017-12-22T20:37:01.903Z,6.18
2017-12-22T20:39:29.432Z,8.85
2017-12-22T20:41:56.940Z,8.13
2017-12-22T20:44:25.216Z,7.00
2017-12-22T20:46:52.737Z,7.90
2017-12-22T20:49:20.260Z,8.20
2017-12-22T20:51:47.768Z,6.70
2017-12-22T20:54:15.270Z,7.90
2017-12-22T20:56:43.537Z,8.18
2017-12-22T20:59:11.056Z,7.20
2017-12-22T21:01:38.585Z,6.78
2017-12-22T21:04:06.150Z,7.43
2017-12-22T21:06:34.784Z,7.57
2017-12-22T21:09:02.658Z,6.20
2017-12-22T21:11:30.371Z,6.70
2017-12-22T21:13:59.746Z,5.90
2017-12-22T21:16:27.270Z,6.43
2017-12-22T21:18:54.778Z,7.45
2017-12-22T21:21:23.055Z,6.23
2017-12-22T21:23:50.568Z,5.80
2017-12-22T21:26:18.097Z,8.25
2017-12-22T21:28:45.713Z,7.12
2017-12-22T21:31:13.223Z,5.97
2017-12-22T21:33:40.750Z,7.70
2017-12-22T21:36:08.312Z,7.45
2017-12-22T21:38:35.871Z,7.30
2017-12-22T21:41:03.387Z,5.43
2017-12-22T21:43:30.929Z,6.75
2017-12-22T21:45:58.432Z,7.37
2017-12-22T21:48:26.703Z,5.62
2017-12-22T21:50:54.204Z,7.97
2017-12-22T21:53:21.769Z,7.37
2017-12-22T21:55:49.258Z,5.90
2017-12-22T21:58:16.764Z,6.12
2017-12-22T22:00:44.286Z,6.30
2017-12-22T22:03:11.809Z,7.10
2017-12-22T22:05:39.333Z,7.30
2017-12-22T22:08:07.610Z,6.50
2017-12-22T22:10:35.867Z,7.22
2017-12-22T22:13:03.390Z,6.30
2017-12-22T22:15:30.899Z,6.40
2017-12-22T22:17:58.432Z,7.75
2017-12-22T22:20:25.937Z,6.28
2017-12-22T22:22:53.460Z,7.62
2017-12-22T22:25:21.055Z,6.25
2017-12-22T22:27:48.577Z,7.07
2017-12-22T22:30:16.086Z,5.93
2017-12-22T22:32:43.588Z,4.50
2017-12-22T22:35:11.076Z,5.70
2017-12-22T22:37:39.396Z,5.90
2017-12-22T22:40:06.926Z,6.10
2017-12-22T22:42:34.468Z,5.93
2017-12-22T22:45:02.842Z,6.65
2017-12-22T22:47:30.351Z,6.83
2017-12-22T22:49:57.860Z,5.72
2017-12-22T22:52:26.118Z,6.30
2017-12-22T22:54:53.645Z,4.37
2017-12-22T22:57:21.150Z,6.43
2017-12-22T22:59:48.661Z,5.90
2017-12-22T23:02:16.168Z,6.07
2017-12-22T23:04:43.683Z,6.62
2017-12-22T23:07:11.187Z,7.23
2017-12-22T23:09:38.718Z,7.30
2017-12-22T23:12:06.255Z,8.05
2017-12-22T23:14:33.775Z,7.63
2017-12-22T23:17:02.088Z,7.00
2017-12-22T23:19:29.606Z,7.10
2017-12-22T23:21:57.906Z,9.40
2017-12-22T23:24:25.414Z,7.12
2017-12-22T23:26:52.909Z,8.27
2017-12-22T23:29:20.417Z,6.65
2017-12-22T23:31:53.797Z,7.93
2017-12-22T23:34:21.319Z,8.50
2017-12-22T23:36:51.179Z,8.48
2017-12-22T23:39:18.696Z,9.02
2017-12-22T23:41:46.963Z,8.90
2017-12-22T23:44:14.578Z,9.73
2017-12-22T23:46:42.272Z,9.32
2017-12-22T23:49:09.791Z,8.30
2017-12-22T23:51:37.319Z,10.52
2017-12-22T23:54:04.981Z,9.18
2017-12-22T23:56:32.537Z,7.70
2017-12-22T23:59:01.674Z,9.75
